createdAt,value
2023-03-01T00:02:35.627Z,99761.75
2023-03-01T00:05:37.364Z,99765.22
2023-03-01T00:08:40.500Z,99758.22
2023-03-01T00:11:42.693Z,99759.94
2023-03-01T00:14:44.352Z,99755.63
2023-03-01T00:17:46.185Z,99763.41
2023-03-01T00:20:50.633Z,99766.00
2023-03-01T00:23:53.596Z,99767.66
2023-03-01T00:26:56.407Z,99762.50
2023-03-01T00:29:58.837Z,99766.88
2023-03-01T00:33:00.917Z,99755.50
2023-03-01T00:36:03.500Z,99758.91
2023-03-01T00:39:07.145Z,99758.91
2023-03-01T00:42:09.026Z,99757.16
2023-03-01T00:45:11.012Z,99751.06
2023-03-01T00:48:12.605Z,99755.44
2023-03-01T00:51:15.417Z,99754.56
2023-03-01T00:54:18.504Z,99754.63
2023-03-01T01:05:00.673Z,99755.75
2023-03-01T01:08:02.306Z,99758.38
2023-03-01T01:11:05.713Z,99744.22
2023-03-01T01:14:07.620Z,99745.72
2023-03-01T01:17:09.300Z,99740.25
2023-03-01T01:20:14.298Z,99741.91
2023-03-01T01:23:15.938Z,99733.97
2023-03-01T01:26:20.155Z,99728.69
2023-03-01T01:29:21.703Z,99726.09
2023-03-01T01:32:26.006Z,99729.56
2023-03-01T01:35:28.582Z,99725.19
2023-03-01T01:38:30.417Z,99721.72
2023-03-01T01:41:33.404Z,99718.22
2023-03-01T01:44:35.218Z,99717.25
2023-03-01T01:47:37.025Z,99720.72
2023-03-01T01:50:40.692Z,99712.84
2023-03-01T01:53:44.340Z,99711.88
2023-03-01T01:56:50.106Z,99710.03
2023-03-01T01:59:53.776Z,99707.31
2023-03-01T02:02:57.595Z,99703.75
2023-03-01T02:06:01.960Z,99701.13
2023-03-01T02:09:07.808Z,99695.91
2023-03-01T02:12:11.150Z,99704.69
2023-03-01T02:15:12.892Z,99692.50
2023-03-01T02:18:19.332Z,99692.50
2023-03-01T02:21:29.921Z,99703.00
2023-03-01T02:24:36.681Z,99707.31
2023-03-01T02:27:46.311Z,99696.72
2023-03-01T02:31:08.907Z,99693.13
2023-03-01T02:34:14.645Z,99690.50
2023-03-01T02:37:21.547Z,99687.91
2023-03-01T02:40:23.931Z,99678.34
2023-03-01T02:43:28.610Z,99691.53
2023-03-01T02:46:31.958Z,99680.19
2023-03-01T02:49:35.652Z,99677.66
2023-03-01T02:52:43.426Z,99658.47
2023-03-01T02:55:44.957Z,99659.38
2023-03-01T02:58:49.010Z,99661.94
2023-03-01T03:08:34.030Z,99659.28
2023-03-01T03:11:37.862Z,99657.47
2023-03-01T03:14:40.029Z,99658.31
2023-03-01T03:17:44.157Z,99646.97
2023-03-01T03:20:47.000Z,99639.06
2023-03-01T03:23:49.896Z,99647.63
2023-03-01T03:26:51.432Z,99644.94
2023-03-01T03:29:52.936Z,99646.56
2023-03-01T03:32:54.848Z,99640.41
2023-03-01T03:35:56.754Z,99636.09
2023-03-01T03:39:00.381Z,99625.66
2023-03-01T03:42:02.782Z,99633.41
2023-03-01T03:45:04.653Z,99635.19
2023-03-01T03:48:07.716Z,99636.97
2023-03-01T03:51:11.941Z,99645.69
2023-03-01T03:54:14.986Z,99640.44
2023-03-01T03:57:17.164Z,99649.19
2023-03-01T04:00:20.118Z,99643.78
2023-03-01T04:03:21.849Z,99641.94
2023-03-01T04:06:23.571Z,99640.03
2023-03-01T04:09:26.728Z,99638.97
2023-03-01T04:12:28.352Z,99634.50
2023-03-01T04:15:30.101Z,99630.94
2023-03-01T04:18:31.993Z,99629.13
2023-03-01T04:21:33.670Z,99629.94
2023-03-01T04:24:36.848Z,99629.94
2023-03-01T04:27:38.358Z,99630.00
2023-03-01T04:30:40.066Z,99632.72
2023-03-01T04:33:42.556Z,99628.44
2023-03-01T04:36:44.342Z,99631.97
2023-03-01T04:39:48.441Z,99629.38
2023-03-01T04:42:50.387Z,99632.78
2023-03-01T04:45:52.309Z,99632.75
2023-03-01T04:48:53.977Z,99635.31
2023-03-01T04:51:55.837Z,99629.09
2023-03-01T04:55:00.246Z,99627.31
2023-03-01T04:58:01.812Z,99634.19
2023-03-01T05:01:16.551Z,99633.22
2023-03-01T05:04:18.706Z,99633.25
2023-03-01T05:07:20.454Z,99635.88
2023-03-01T05:10:23.843Z,99633.25
2023-03-01T05:13:25.502Z,99628.78
2023-03-01T05:16:27.203Z,99627.03
2023-03-01T05:19:28.822Z,99623.53
2023-03-01T05:22:30.590Z,99622.53
2023-03-01T05:25:34.404Z,99617.31
2023-03-01T05:28:35.954Z,99609.44
2023-03-01T05:31:39.139Z,99612.94
2023-03-01T05:34:40.986Z,99608.63
2023-03-01T05:37:42.826Z,99610.34
2023-03-01T05:40:47.967Z,99607.75
2023-03-01T05:43:49.421Z,99614.66
2023-03-01T05:46:51.264Z,99608.63
2023-03-01T05:49:53.157Z,99613.09
2023-03-01T05:52:58.337Z,99614.78
2023-03-01T05:59:16.073Z,99615.72
2023-03-01T06:02:17.918Z,99607.88
2023-03-01T06:05:19.500Z,99622.69
2023-03-01T06:08:23.069Z,99613.94
2023-03-01T06:11:24.596Z,99616.56
2023-03-01T06:14:27.492Z,99620.94
2023-03-01T06:17:30.429Z,99622.72
2023-03-01T06:20:32.170Z,99620.25
2023-03-01T06:23:34.267Z,99619.50
2023-03-01T06:26:35.775Z,99617.88
2023-03-01T06:29:42.788Z,99626.63
2023-03-01T06:32:45.260Z,99626.69
2023-03-01T06:35:47.035Z,99618.00
2023-03-01T06:38:48.995Z,99614.63
2023-03-01T06:41:50.646Z,99619.06
2023-03-01T06:44:53.837Z,99624.31
2023-03-01T06:48:02.350Z,99620.84
2023-03-01T06:51:04.197Z,99631.31
2023-03-01T06:54:05.812Z,99619.25
2023-03-01T06:57:07.503Z,99621.97
2023-03-01T07:00:12.683Z,99620.31
2023-03-01T07:03:15.494Z,99622.19
2023-03-01T07:06:17.301Z,99617.00
2023-03-01T07:09:20.810Z,99616.25
2023-03-01T07:12:22.644Z,99609.44
2023-03-01T07:15:27.107Z,99613.00
2023-03-01T07:18:28.614Z,99600.06
2023-03-01T07:21:30.313Z,99605.38
2023-03-01T07:24:31.973Z,99599.38
2023-03-01T07:27:33.755Z,99602.09
2023-03-01T07:30:36.721Z,99604.81
2023-03-01T07:33:38.602Z,99607.50
2023-03-01T07:36:43.477Z,99596.25
2023-03-01T07:39:45.010Z,99596.44
2023-03-01T07:42:46.666Z,99600.94
2023-03-01T07:45:49.812Z,99600.16
2023-03-01T07:48:51.431Z,99594.13
2023-03-01T07:51:52.954Z,99594.16
2023-03-01T07:54:54.747Z,99602.09
2023-03-01T07:57:56.406Z,99597.84
2023-03-01T08:01:03.770Z,99602.31
2023-03-01T08:04:08.075Z,99597.25
2023-03-01T08:07:09.877Z,99591.25
2023-03-01T08:10:12.162Z,99593.09
2023-03-01T08:13:13.782Z,99580.97
2023-03-01T08:16:17.047Z,99586.25
2023-03-01T08:19:19.033Z,99582.00
2023-03-01T08:22:20.725Z,99589.94
2023-03-01T08:25:22.358Z,99585.69
2023-03-01T08:28:23.911Z,99586.72
2023-03-01T08:31:28.702Z,99591.31
2023-03-01T08:34:32.166Z,99580.97
2023-03-01T08:37:33.911Z,99587.22
2023-03-01T08:40:35.440Z,99584.72
2023-03-01T08:43:37.038Z,99576.13
2023-03-01T08:46:41.629Z,99571.03
2023-03-01T08:49:43.343Z,99579.03
2023-03-01T08:52:45.028Z,99586.16
2023-03-01T08:55:46.607Z,99585.25
2023-03-01T08:58:49.149Z,99588.78
2023-03-01T09:01:52.396Z,99582.72
2023-03-01T09:04:54.089Z,99583.59
2023-03-01T09:07:55.768Z,99581.94
2023-03-01T09:10:57.544Z,99571.59
2023-03-01T09:13:59.432Z,99575.97
2023-03-01T09:17:04.071Z,99582.25
2023-03-01T09:20:06.961Z,99585.78
2023-03-01T09:23:08.730Z,99570.00
2023-03-01T09:26:11.113Z,99578.81
2023-03-01T09:29:12.862Z,99563.94
2023-03-01T09:32:16.694Z,99566.63
2023-03-01T09:35:18.939Z,99572.81
2023-03-01T09:38:20.639Z,99563.16
2023-03-01T09:41:46.960Z,99564.09
2023-03-01T09:44:52.313Z,99562.38
2023-03-01T09:47:55.563Z,99562.44
2023-03-01T09:50:57.337Z,99563.31
2023-03-01T09:54:01.779Z,99569.50
2023-03-01T09:57:09.002Z,99566.81
2023-03-01T10:00:17.124Z,99572.09
2023-03-01T10:03:26.192Z,99577.47
2023-03-01T10:06:35.007Z,99567.81
2023-03-01T10:09:38.584Z,99561.69
2023-03-01T10:12:41.900Z,99559.91
2023-03-01T10:15:45.044Z,99559.00
2023-03-01T10:18:52.779Z,99551.13
2023-03-01T10:21:55.084Z,99548.53
2023-03-01T10:24:58.356Z,99541.47
2023-03-01T10:28:03.221Z,99545.00
2023-03-01T10:31:05.222Z,99536.22
2023-03-01T10:34:11.603Z,99539.72
2023-03-01T10:37:14.407Z,99544.13
2023-03-01T10:40:16.367Z,99544.13
2023-03-01T10:43:18.483Z,99535.34
2023-03-01T10:46:24.292Z,99533.56
2023-03-01T10:49:27.518Z,99544.13
2023-03-01T10:52:33.983Z,99536.16
2023-03-01T10:55:36.717Z,99532.66
2023-03-01T10:58:39.428Z,99530.91
2023-03-01T11:01:41.285Z,99532.63
2023-03-01T11:04:56.967Z,99530.00
2023-03-01T11:07:59.389Z,99531.72
2023-03-01T11:11:21.986Z,99528.13
2023-03-01T11:14:27.111Z,99525.44
2023-03-01T11:17:31.609Z,99528.13
2023-03-01T11:20:36.912Z,99526.25
2023-03-01T11:23:40.137Z,99510.31
2023-03-01T11:26:43.445Z,99522.53
2023-03-01T11:29:49.017Z,99514.72
2023-03-01T11:32:58.216Z,99512.16
2023-03-01T11:36:04.147Z,99515.72
2023-03-01T11:39:13.964Z,99516.66
2023-03-01T11:42:30.258Z,99511.34
2023-03-01T11:45:35.927Z,99504.22
2023-03-01T11:48:50.080Z,99497.94
2023-03-01T11:51:56.837Z,99500.56
2023-03-01T11:55:16.598Z,99495.28
2023-03-01T11:58:28.568Z,99492.69
2023-03-01T12:01:37.259Z,99498.84
2023-03-01T12:04:54.962Z,99492.41
2023-03-01T12:08:01.883Z,99489.84
2023-03-01T12:11:11.208Z,99482.47
2023-03-01T12:14:29.864Z,99483.59
2023-03-01T12:17:35.381Z,99490.69
2023-03-01T12:20:42.304Z,99479.91
2023-03-01T12:24:02.196Z,99482.34
2023-03-01T12:27:17.197Z,99472.03
2023-03-01T12:30:26.378Z,99471.03
2023-03-01T12:33:34.181Z,99458.66
2023-03-01T12:36:53.633Z,99449.56
2023-03-01T12:40:14.568Z,99441.47
2023-03-01T12:43:23.696Z,99442.50
2023-03-01T12:46:30.206Z,99433.50
2023-03-01T12:49:34.630Z,99433.41
2023-03-01T12:52:39.800Z,99437.81
2023-03-01T12:55:43.887Z,99437.97
2023-03-01T12:58:56.864Z,99424.69
2023-03-01T13:02:05.857Z,99426.44
2023-03-01T13:05:18.659Z,99419.50
2023-03-01T13:08:21.749Z,99417.50
2023-03-01T13:11:24.118Z,99415.72
2023-03-01T13:14:45.178Z,99409.31
2023-03-01T13:17:47.104Z,99410.09
2023-03-01T13:20:49.932Z,99407.41
2023-03-01T13:23:51.561Z,99405.59
2023-03-01T13:27:14.188Z,99392.47
2023-03-01T13:30:39.956Z,99400.69
2023-03-01T13:33:46.957Z,99387.91
2023-03-01T13:36:49.910Z,99392.28
2023-03-01T13:39:52.394Z,99379.81
2023-03-01T13:43:04.743Z,99379.06
2023-03-01T13:46:12.236Z,99379.19
2023-03-01T13:49:16.610Z,99377.41
2023-03-01T13:52:32.862Z,99382.63
2023-03-01T13:55:38.327Z,99372.03
2023-03-01T14:01:53.822Z,99368.00
2023-03-01T14:05:00.663Z,99370.66
2023-03-01T14:08:02.517Z,99356.56
2023-03-01T14:11:17.408Z,99364.59
2023-03-01T14:14:24.982Z,99361.91
2023-03-01T14:17:34.571Z,99356.66
2023-03-01T14:20:41.279Z,99351.91
2023-03-01T14:23:43.255Z,99354.41
2023-03-01T14:26:45.089Z,99356.28
2023-03-01T14:29:55.947Z,99362.66
2023-03-01T14:32:58.342Z,99357.66
2023-03-01T14:36:02.543Z,99346.03
2023-03-01T14:39:17.776Z,99340.69
2023-03-01T14:42:20.417Z,99344.84
2023-03-01T14:45:22.567Z,99346.75
2023-03-01T14:48:24.628Z,99351.03
2023-03-01T14:51:27.620Z,99352.78
2023-03-01T14:54:31.027Z,99339.53
2023-03-01T14:57:33.228Z,99334.25
2023-03-01T15:00:35.362Z,99333.47
2023-03-01T15:03:40.999Z,99330.94
2023-03-01T15:06:44.556Z,99320.38
2023-03-01T15:09:46.921Z,99319.41
2023-03-01T15:12:48.731Z,99312.28
2023-03-01T15:15:51.409Z,99313.28
2023-03-01T15:18:55.176Z,99306.47
2023-03-01T15:21:58.309Z,99297.78
2023-03-01T15:25:00.052Z,99306.59
2023-03-01T15:28:02.494Z,99297.84
2023-03-01T15:31:20.532Z,99295.28
2023-03-01T15:34:23.461Z,99283.84
2023-03-01T15:37:41.755Z,99282.22
2023-03-01T15:40:50.187Z,99285.88
2023-03-01T15:43:55.090Z,99283.25
2023-03-01T15:46:57.533Z,99280.75
2023-03-01T15:50:00.698Z,99285.25
2023-03-01T15:53:07.540Z,99286.28
2023-03-01T15:56:09.151Z,99286.28
2023-03-01T16:02:31.202Z,99274.13
2023-03-01T16:05:34.292Z,99285.53
2023-03-01T16:08:37.342Z,99287.31
2023-03-01T16:19:15.855Z,99286.56
2023-03-01T16:29:12.056Z,99280.72
2023-03-01T16:32:14.468Z,99287.91
2023-03-01T16:35:17.781Z,99279.19
2023-03-01T16:38:19.454Z,99285.44
2023-03-01T16:41:22.124Z,99293.38
2023-03-01T16:44:24.978Z,99280.25
2023-03-01T16:47:26.643Z,99282.94
2023-03-01T16:50:28.679Z,99276.84
2023-03-01T16:53:30.378Z,99282.19
2023-03-01T16:56:34.012Z,99276.09
2023-03-01T16:59:38.253Z,99279.63
2023-03-01T17:02:39.776Z,99284.03
2023-03-01T17:05:41.302Z,99281.41
2023-03-01T17:08:42.826Z,99284.06
2023-03-01T17:11:44.320Z,99294.63
2023-03-01T17:14:48.346Z,99295.53
2023-03-01T17:17:51.964Z,99292.03
2023-03-01T17:20:53.781Z,99292.06
2023-03-01T17:23:56.117Z,99283.28
2023-03-01T17:26:57.837Z,99285.06
2023-03-01T17:30:00.835Z,99288.56
2023-03-01T17:33:02.447Z,99292.09
2023-03-01T17:39:36.301Z,99302.66
2023-03-01T17:42:38.184Z,99304.44
2023-03-01T17:45:44.514Z,99309.72
2023-03-01T17:52:00.456Z,99322.03
2023-03-01T17:55:02.105Z,99319.38
2023-03-01T17:58:03.858Z,99323.78
2023-03-01T18:01:12.140Z,99322.03
2023-03-01T18:04:16.510Z,99312.38
2023-03-01T18:07:18.444Z,99316.75
2023-03-01T18:10:20.507Z,99308.88
2023-03-01T18:13:22.002Z,99317.63
2023-03-01T18:16:25.227Z,99319.41
2023-03-01T18:19:28.545Z,99323.78
2023-03-01T18:22:30.965Z,99325.53
2023-03-01T18:25:32.787Z,99322.06
2023-03-01T18:28:34.961Z,99323.81
2023-03-01T18:31:37.930Z,99317.66
2023-03-01T18:34:39.648Z,99319.44
2023-03-01T18:37:43.957Z,99314.13
2023-03-01T18:40:45.760Z,99310.63
2023-03-01T18:43:47.458Z,99308.88
2023-03-01T18:46:50.518Z,99306.28
2023-03-01T18:49:52.160Z,99303.63
2023-03-01T18:52:54.038Z,99308.00
2023-03-01T18:55:59.187Z,99297.50
2023-03-01T18:59:00.966Z,99297.50
2023-03-01T19:02:04.038Z,99298.34
2023-03-01T19:05:06.098Z,99290.50
2023-03-01T19:08:07.978Z,99297.50
2023-03-01T19:11:10.596Z,99298.38
2023-03-01T19:14:12.134Z,99291.38
2023-03-01T19:17:16.268Z,99294.88
2023-03-01T19:20:18.030Z,99291.38
2023-03-01T19:23:19.753Z,99292.25
2023-03-01T19:26:22.650Z,99288.72
2023-03-01T19:29:24.310Z,99292.22
2023-03-01T19:32:27.471Z,99297.47
2023-03-01T19:35:29.253Z,99280.84
2023-03-01T19:38:30.976Z,99298.34
2023-03-01T19:41:32.567Z,99291.34
2023-03-01T19:44:34.184Z,99297.50
2023-03-01T19:47:37.097Z,99295.75
2023-03-01T19:50:39.042Z,99301.88
2023-03-01T19:53:41.151Z,99298.34
2023-03-01T19:56:42.825Z,99295.72
2023-03-01T19:59:44.508Z,99297.50
2023-03-01T20:02:47.669Z,99291.34
2023-03-01T20:05:49.325Z,99296.63
2023-03-01T20:08:50.982Z,99288.72
2023-03-01T20:11:52.844Z,99296.59
2023-03-01T20:14:57.010Z,99294.84
2023-03-01T20:18:00.041Z,99300.09
2023-03-01T20:21:01.803Z,99292.19
2023-03-01T20:24:04.561Z,99288.66
2023-03-01T20:27:06.257Z,99286.91
2023-03-01T20:30:08.754Z,99286.00
2023-03-01T20:33:11.755Z,99279.00
2023-03-01T20:36:13.617Z,99286.03
2023-03-01T20:39:15.823Z,99281.66
2023-03-01T20:42:17.384Z,99287.78
2023-03-01T20:45:19.074Z,99281.66
2023-03-01T20:48:21.938Z,99286.91
2023-03-01T20:51:23.601Z,99289.53
2023-03-01T20:54:27.832Z,99302.69
2023-03-01T20:57:29.502Z,99303.56
2023-03-01T21:00:32.170Z,99300.06
2023-03-01T21:03:35.776Z,99296.53
2023-03-01T21:06:38.816Z,99294.78
2023-03-01T21:09:41.977Z,99292.16
2023-03-01T21:12:43.536Z,99291.25
2023-03-01T21:15:52.396Z,99286.88
2023-03-01T21:18:55.377Z,99285.97
2023-03-01T21:21:56.881Z,99283.34
2023-03-01T21:24:58.535Z,99286.00
2023-03-01T21:28:00.264Z,99281.63
2023-03-01T21:31:06.126Z,99273.72
2023-03-01T21:37:29.929Z,99271.09
2023-03-01T21:40:31.555Z,99269.34
2023-03-01T21:43:33.148Z,99278.09
2023-03-01T21:46:36.894Z,99271.06
2023-03-01T21:49:40.206Z,99274.56
2023-03-01T21:52:43.380Z,99273.69
2023-03-01T21:55:48.422Z,99272.78
2023-03-01T21:58:50.392Z,99271.03
2023-03-01T22:01:52.086Z,99268.41
2023-03-01T22:04:57.534Z,99268.41
2023-03-01T22:08:00.543Z,99258.75
2023-03-01T22:11:02.946Z,99267.50
2023-03-01T22:14:05.152Z,99267.50
2023-03-01T22:17:06.922Z,99263.09
2023-03-01T22:20:09.886Z,99264.81
2023-03-01T22:23:12.940Z,99263.94
2023-03-01T22:26:22.199Z,99263.06
2023-03-01T22:29:25.077Z,99263.03
2023-03-01T22:32:26.690Z,99255.16
2023-03-01T22:35:28.417Z,99261.28
2023-03-01T22:38:32.303Z,99255.19
2023-03-01T22:41:34.938Z,99249.06
2023-03-01T22:44:36.454Z,99255.25
2023-03-01T22:47:38.216Z,99248.22
2023-03-01T22:50:41.862Z,99257.84
2023-03-01T22:53:44.926Z,99245.59
2023-03-01T22:56:46.786Z,99238.56
2023-03-01T22:59:48.773Z,99241.19
2023-03-01T23:02:50.552Z,99235.94
2023-03-01T23:05:52.749Z,99226.31
2023-03-01T23:08:56.814Z,99226.31
2023-03-01T23:11:59.053Z,99228.94
2023-03-01T23:15:01.893Z,99222.81
2023-03-01T23:18:04.040Z,99220.19
2023-03-01T23:21:09.697Z,99227.19
2023-03-01T23:24:13.082Z,99223.69
2023-03-01T23:27:16.911Z,99235.06
2023-03-01T23:30:18.764Z,99230.69
2023-03-01T23:33:20.311Z,99230.69
2023-03-01T23:36:22.968Z,99231.56
2023-03-01T23:39:30.008Z,99235.94
2023-03-01T23:42:31.781Z,99240.31
2023-03-01T23:45:36.704Z,99246.34
2023-03-01T23:48:38.256Z,99235.78
2023-03-01T23:51:40.097Z,99230.50
2023-03-01T23:58:15.540Z,99222.47
